createdAt,value
2022-08-29T00:00:59.752Z,66.70
2022-08-29T00:03:27.866Z,66.60
2022-08-29T00:05:56.711Z,66.80
2022-08-29T00:08:24.339Z,66.90
2022-08-29T00:10:51.306Z,67.00
2022-08-29T00:13:18.052Z,67.20
2022-08-29T00:15:45.464Z,67.40
2022-08-29T00:18:17.480Z,67.30
2022-08-29T00:20:46.069Z,67.50
2022-08-29T00:23:12.999Z,67.50
2022-08-29T00:25:39.977Z,67.70
2022-08-29T00:28:07.572Z,67.90
2022-08-29T00:30:35.518Z,67.90
2022-08-29T00:33:02.719Z,68.00
2022-08-29T00:35:35.570Z,68.10
2022-08-29T00:38:05.661Z,68.20
2022-08-29T00:40:41.499Z,68.30
2022-08-29T00:43:10.002Z,68.40
2022-08-29T00:45:47.302Z,68.60
2022-08-29T00:48:16.574Z,68.70
2022-08-29T00:51:01.127Z,68.70
2022-08-29T00:53:40.908Z,68.70
2022-08-29T00:56:11.874Z,69.70
2022-08-29T00:58:47.641Z,69.20
2022-08-29T01:01:15.033Z,69.40
2022-08-29T01:03:43.270Z,69.60
2022-08-29T01:06:13.606Z,69.80
2022-08-29T01:08:41.839Z,70.00
2022-08-29T01:11:29.870Z,70.00
2022-08-29T01:13:58.673Z,70.30
2022-08-29T01:16:27.603Z,70.40
2022-08-29T01:19:01.442Z,70.60
2022-08-29T01:21:48.032Z,70.70
2022-08-29T01:24:41.736Z,70.70
2022-08-29T01:27:11.399Z,70.80
2022-08-29T01:29:38.376Z,71.00
2022-08-29T01:32:06.127Z,71.20
2022-08-29T01:34:33.254Z,71.20
2022-08-29T01:37:05.050Z,71.20
2022-08-29T01:39:36.877Z,71.30
2022-08-29T01:42:10.653Z,71.50
2022-08-29T01:44:39.423Z,71.20
2022-08-29T01:47:08.904Z,71.50
2022-08-29T01:49:37.822Z,71.70
2022-08-29T01:52:08.382Z,71.70
2022-08-29T01:54:35.563Z,71.80
2022-08-29T01:57:02.575Z,71.80
2022-08-29T01:59:31.172Z,71.80
2022-08-29T02:02:25.961Z,71.80
2022-08-29T02:04:53.824Z,72.10
2022-08-29T02:07:24.434Z,72.00
2022-08-29T02:09:52.111Z,72.10
2022-08-29T02:12:20.703Z,72.20
2022-08-29T02:14:48.268Z,72.20
2022-08-29T02:17:15.104Z,72.60
2022-08-29T02:19:42.570Z,72.50
2022-08-29T02:22:10.032Z,72.70
2022-08-29T02:24:37.994Z,72.80
2022-08-29T02:27:05.161Z,72.90
2022-08-29T02:29:37.170Z,73.40
2022-08-29T02:32:07.269Z,73.20
2022-08-29T02:34:35.328Z,73.60
2022-08-29T02:37:02.609Z,73.60
2022-08-29T02:39:29.592Z,73.70
2022-08-29T02:41:56.652Z,73.70
2022-08-29T02:44:23.474Z,73.80
2022-08-29T02:46:50.746Z,73.70
2022-08-29T02:49:17.708Z,73.90
2022-08-29T02:51:45.342Z,73.90
2022-08-29T02:54:13.235Z,73.70
2022-08-29T02:56:41.169Z,73.60
2022-08-29T02:59:08.509Z,73.60
2022-08-29T03:01:38.657Z,73.60
2022-08-29T03:04:06.052Z,73.70
2022-08-29T03:06:33.249Z,73.80
2022-08-29T03:09:01.052Z,73.90
2022-08-29T03:11:29.617Z,73.90
2022-08-29T03:13:57.975Z,73.70
2022-08-29T03:16:27.025Z,73.90
2022-08-29T03:18:54.728Z,73.90
2022-08-29T03:21:26.957Z,73.90
2022-08-29T03:23:56.261Z,74.00
2022-08-29T03:26:23.780Z,74.10
2022-08-29T03:28:50.884Z,74.20
2022-08-29T03:31:17.745Z,74.30
2022-08-29T03:33:44.544Z,74.40
2022-08-29T03:36:13.609Z,74.50
2022-08-29T03:38:46.432Z,74.50
2022-08-29T03:41:23.297Z,74.60
2022-08-29T03:43:51.499Z,74.90
2022-08-29T03:46:18.507Z,74.90
2022-08-29T03:48:45.451Z,75.00
2022-08-29T03:51:12.497Z,75.20
2022-08-29T03:53:40.755Z,75.30
2022-08-29T03:56:10.747Z,75.40
2022-08-29T03:58:48.027Z,75.40
2022-08-29T04:01:19.224Z,75.50
2022-08-29T04:03:46.177Z,75.60
2022-08-29T04:06:12.928Z,75.70
2022-08-29T04:08:39.914Z,75.70
2022-08-29T04:11:11.495Z,75.70
2022-08-29T04:13:38.411Z,75.90
2022-08-29T04:16:19.456Z,75.90
2022-08-29T04:18:46.521Z,75.90
2022-08-29T04:21:13.850Z,76.00
2022-08-29T04:23:40.915Z,76.10
2022-08-29T04:26:36.047Z,76.20
2022-08-29T04:29:06.017Z,76.30
2022-08-29T04:31:33.012Z,76.30
2022-08-29T04:33:59.873Z,76.50
2022-08-29T04:36:28.090Z,77.30
2022-08-29T04:38:55.268Z,77.50
2022-08-29T04:41:22.106Z,77.10
2022-08-29T04:43:48.875Z,77.20
2022-08-29T04:46:23.958Z,77.10
2022-08-29T04:48:53.103Z,77.10
2022-08-29T04:51:21.361Z,76.90
2022-08-29T04:53:50.967Z,77.00
2022-08-29T04:56:18.467Z,76.90
2022-08-29T04:58:45.683Z,76.70
2022-08-29T05:01:15.981Z,76.60
2022-08-29T05:03:43.410Z,76.80
2022-08-29T05:06:13.752Z,76.80
2022-08-29T05:08:43.063Z,76.80
2022-08-29T05:11:22.587Z,76.80
2022-08-29T05:13:53.323Z,76.80
2022-08-29T05:16:20.432Z,76.80
2022-08-29T05:18:47.478Z,76.90
2022-08-29T05:21:25.759Z,77.10
2022-08-29T05:23:54.542Z,77.50
2022-08-29T05:26:21.332Z,77.60
2022-08-29T05:28:48.688Z,77.80
2022-08-29T05:31:15.640Z,78.00
2022-08-29T05:33:43.156Z,78.20
2022-08-29T05:36:10.547Z,78.70
2022-08-29T05:38:37.510Z,78.90
2022-08-29T05:41:04.785Z,79.20
2022-08-29T05:43:33.117Z,79.60
2022-08-29T05:46:06.736Z,79.80
2022-08-29T05:48:34.652Z,80.30
2022-08-29T05:51:01.870Z,80.20
2022-08-29T05:53:28.944Z,80.40
2022-08-29T05:55:55.983Z,80.60
2022-08-29T05:58:23.131Z,80.90
2022-08-29T06:00:50.382Z,80.90
2022-08-29T06:03:17.536Z,81.00
2022-08-29T06:05:52.069Z,81.30
2022-08-29T06:08:21.134Z,81.50
2022-08-29T06:10:48.219Z,81.40
2022-08-29T06:13:15.264Z,81.50
2022-08-29T06:15:45.798Z,81.60
2022-08-29T06:18:13.110Z,81.80
2022-08-29T06:20:40.331Z,81.60
2022-08-29T06:23:07.140Z,81.50
2022-08-29T06:25:39.502Z,81.40
2022-08-29T06:28:07.697Z,81.20
2022-08-29T06:30:34.847Z,80.90
2022-08-29T06:33:02.533Z,80.50
2022-08-29T06:35:29.950Z,80.40
2022-08-29T06:37:56.803Z,80.10
2022-08-29T06:40:23.721Z,80.00
2022-08-29T06:42:50.622Z,79.80
2022-08-29T06:45:17.535Z,79.50
2022-08-29T06:47:47.701Z,79.10
2022-08-29T06:50:16.499Z,78.70
2022-08-29T06:52:43.817Z,78.50
2022-08-29T06:55:14.802Z,78.50
2022-08-29T06:57:45.405Z,78.50
2022-08-29T07:00:22.092Z,78.60
2022-08-29T07:02:51.851Z,78.60
2022-08-29T07:05:22.590Z,78.50
2022-08-29T07:07:51.018Z,78.30
2022-08-29T07:10:22.548Z,78.30
2022-08-29T07:12:51.138Z,78.30
2022-08-29T07:15:18.937Z,78.30
2022-08-29T07:17:46.358Z,78.10
2022-08-29T07:20:14.312Z,77.90
2022-08-29T07:25:10.365Z,76.50
2022-08-29T07:27:37.569Z,77.20
2022-08-29T07:30:06.738Z,77.20
2022-08-29T07:32:33.574Z,77.20
2022-08-29T07:35:00.377Z,77.20
2022-08-29T07:37:27.211Z,77.00
2022-08-29T07:39:54.427Z,76.90
2022-08-29T07:42:21.462Z,76.20
2022-08-29T07:44:48.235Z,75.90
2022-08-29T07:47:15.408Z,75.80
2022-08-29T07:49:42.284Z,75.80
2022-08-29T07:52:09.503Z,76.00
2022-08-29T07:54:36.355Z,76.00
2022-08-29T07:57:03.185Z,76.00
2022-08-29T07:59:31.269Z,76.10
2022-08-29T08:01:58.137Z,75.90
2022-08-29T08:04:26.200Z,75.80
2022-08-29T08:06:53.218Z,75.80
2022-08-29T08:09:20.064Z,75.80
2022-08-29T08:11:47.589Z,75.60
2022-08-29T08:14:14.383Z,75.40
2022-08-29T08:16:44.266Z,75.20
2022-08-29T08:19:14.243Z,75.00
2022-08-29T08:21:44.382Z,75.30
2022-08-29T08:24:19.768Z,75.10
2022-08-29T08:26:49.085Z,75.10
2022-08-29T08:29:16.317Z,75.10
2022-08-29T08:31:50.235Z,74.60
2022-08-29T08:34:18.956Z,74.30
2022-08-29T08:36:46.336Z,74.40
2022-08-29T08:39:14.618Z,74.00
2022-08-29T08:42:03.224Z,74.10
2022-08-29T08:44:58.113Z,73.10
2022-08-29T08:47:44.636Z,73.20
2022-08-29T08:50:25.335Z,73.70
2022-08-29T08:53:28.053Z,73.40
2022-08-29T08:55:58.066Z,72.90
2022-08-29T08:58:36.857Z,73.60
2022-08-29T09:01:34.348Z,73.30
2022-08-29T09:04:12.700Z,73.20
2022-08-29T09:07:26.866Z,73.70
2022-08-29T09:10:40.994Z,73.10
2022-08-29T09:13:45.958Z,72.70
2022-08-29T09:16:34.202Z,72.70
2022-08-29T09:19:10.898Z,73.00
2022-08-29T09:21:58.951Z,72.90
2022-08-29T09:24:49.164Z,72.40
2022-08-29T09:27:21.991Z,72.80
2022-08-29T09:30:10.985Z,72.00
2022-08-29T09:33:15.287Z,71.20
2022-08-29T09:35:47.585Z,70.90
2022-08-29T09:38:17.427Z,71.30
2022-08-29T09:40:57.001Z,71.00
2022-08-29T09:43:39.430Z,70.80
2022-08-29T09:46:24.438Z,69.70
2022-08-29T09:49:19.048Z,70.20
2022-08-29T09:51:49.386Z,70.20
2022-08-29T09:54:28.601Z,71.00
2022-08-29T09:57:26.492Z,71.00
2022-08-29T10:00:14.484Z,69.90
2022-08-29T10:02:50.309Z,70.90
2022-08-29T10:05:45.919Z,71.00
2022-08-29T10:08:38.900Z,70.40
2022-08-29T10:11:41.814Z,69.80
2022-08-29T10:14:37.023Z,70.50
2022-08-29T10:17:44.902Z,70.30
2022-08-29T10:20:12.173Z,70.20
2022-08-29T10:22:57.596Z,70.10
2022-08-29T10:25:37.452Z,69.20
2022-08-29T10:28:31.193Z,69.40
2022-08-29T10:31:13.572Z,69.30
2022-08-29T10:34:05.097Z,69.30
2022-08-29T10:36:37.284Z,68.60
2022-08-29T10:40:04.044Z,68.90
2022-08-29T10:42:34.790Z,67.60
2022-08-29T10:45:36.266Z,68.70
2022-08-29T10:48:19.474Z,67.80
2022-08-29T10:51:09.068Z,67.40
2022-08-29T10:53:43.853Z,67.30
2022-08-29T10:56:33.055Z,67.50
2022-08-29T11:00:02.644Z,67.10
2022-08-29T11:02:52.024Z,66.90
2022-08-29T11:05:39.331Z,66.70
2022-08-29T11:08:31.936Z,66.60
2022-08-29T11:10:58.776Z,66.90
2022-08-29T11:13:42.064Z,66.80
2022-08-29T11:16:27.513Z,66.20
2022-08-29T11:19:16.182Z,65.80
2022-08-29T11:22:09.644Z,65.60
2022-08-29T11:24:42.007Z,65.90
2022-08-29T11:28:04.179Z,66.50
2022-08-29T11:30:55.815Z,65.50
2022-08-29T11:33:42.606Z,66.20
2022-08-29T11:36:49.294Z,65.80
2022-08-29T11:39:54.772Z,65.30
2022-08-29T11:45:29.637Z,66.50
2022-08-29T11:48:46.219Z,66.50
2022-08-29T11:51:37.459Z,66.10
2022-08-29T11:54:26.449Z,65.80
2022-08-29T11:57:02.554Z,65.30
2022-08-29T11:59:54.662Z,65.20
2022-08-29T12:02:27.705Z,65.00
2022-08-29T12:04:56.909Z,65.40
2022-08-29T12:07:54.487Z,65.20
2022-08-29T12:10:23.933Z,63.80
2022-08-29T12:13:03.561Z,65.20
2022-08-29T12:15:30.576Z,65.30
2022-08-29T12:18:36.324Z,65.10
2022-08-29T12:21:39.451Z,64.30
2022-08-29T12:24:29.327Z,63.50
2022-08-29T12:26:56.403Z,64.40
2022-08-29T12:29:44.639Z,64.40
2022-08-29T12:32:35.072Z,63.30
2022-08-29T12:35:14.427Z,64.10
2022-08-29T12:38:16.745Z,63.90
2022-08-29T12:40:57.038Z,63.40
2022-08-29T12:43:42.552Z,63.10
2022-08-29T12:46:28.626Z,62.90
2022-08-29T12:49:53.150Z,63.40
2022-08-29T12:52:38.940Z,61.80
2022-08-29T12:55:29.041Z,62.40
2022-08-29T12:57:57.661Z,61.20
2022-08-29T13:00:30.211Z,62.40
2022-08-29T13:03:18.214Z,61.60
2022-08-29T13:05:47.162Z,61.30
2022-08-29T13:08:28.426Z,62.40
2022-08-29T13:11:05.242Z,61.50
2022-08-29T13:13:32.191Z,61.80
2022-08-29T13:16:02.948Z,61.90
2022-08-29T13:18:33.735Z,61.20
2022-08-29T13:21:22.161Z,61.00
2022-08-29T13:24:24.642Z,60.20
2022-08-29T13:27:04.798Z,60.40
2022-08-29T13:29:41.290Z,60.80
2022-08-29T13:32:26.849Z,60.60
2022-08-29T13:35:06.334Z,60.40
2022-08-29T13:37:43.098Z,60.60
2022-08-29T13:40:31.896Z,60.20
2022-08-29T13:43:00.952Z,59.60
2022-08-29T13:45:28.672Z,60.30
2022-08-29T13:47:59.237Z,60.20
2022-08-29T13:50:27.613Z,60.00
2022-08-29T13:52:57.250Z,59.90
2022-08-29T13:55:25.813Z,59.50
2022-08-29T13:57:55.154Z,59.50
2022-08-29T14:00:31.932Z,59.70
2022-08-29T14:03:01.404Z,59.60
2022-08-29T14:05:28.442Z,59.60
2022-08-29T14:07:55.265Z,59.70
2022-08-29T14:10:22.125Z,59.70
2022-08-29T14:12:49.199Z,59.40
2022-08-29T14:15:19.326Z,60.00
2022-08-29T14:17:47.944Z,59.70
2022-08-29T14:20:17.767Z,59.70
2022-08-29T14:22:45.885Z,59.80
2022-08-29T14:25:15.105Z,59.80
2022-08-29T14:27:43.751Z,59.20
2022-08-29T14:30:14.393Z,59.00
2022-08-29T14:32:41.414Z,59.00
2022-08-29T14:35:09.348Z,59.00
2022-08-29T14:37:36.280Z,59.20
2022-08-29T14:40:08.834Z,59.00
2022-08-29T14:42:36.747Z,58.80
2022-08-29T14:45:06.113Z,58.80
2022-08-29T14:47:33.171Z,58.20
2022-08-29T14:50:00.699Z,58.50
2022-08-29T14:52:28.007Z,58.20
2022-08-29T14:54:56.276Z,58.10
2022-08-29T14:57:23.171Z,58.30
2022-08-29T14:59:51.076Z,58.30
2022-08-29T15:02:20.672Z,58.20
2022-08-29T15:04:49.974Z,58.00
2022-08-29T15:07:18.253Z,57.70
2022-08-29T15:09:45.953Z,57.80
2022-08-29T15:12:15.620Z,57.80
2022-08-29T15:14:42.719Z,57.80
2022-08-29T15:17:10.812Z,57.50
2022-08-29T15:20:18.227Z,57.50
2022-08-29T15:22:25.417Z,57.60
2022-08-29T15:24:53.161Z,57.80
2022-08-29T15:27:26.882Z,57.80
2022-08-29T15:29:54.120Z,57.80
2022-08-29T15:32:20.981Z,57.40
2022-08-29T15:34:47.724Z,57.60
2022-08-29T15:37:14.835Z,57.70
2022-08-29T15:39:42.121Z,57.70
2022-08-29T15:42:11.822Z,57.80
2022-08-29T15:44:44.353Z,57.80
2022-08-29T15:47:11.767Z,57.80
2022-08-29T15:49:39.615Z,57.40
2022-08-29T15:52:06.865Z,57.40
2022-08-29T15:54:33.679Z,57.40
2022-08-29T15:57:01.062Z,57.30
2022-08-29T15:59:54.412Z,57.40
2022-08-29T16:02:15.263Z,57.10
2022-08-29T16:04:48.522Z,57.10
2022-08-29T16:07:17.673Z,57.30
2022-08-29T16:09:45.769Z,57.40
2022-08-29T16:12:12.868Z,57.30
2022-08-29T16:17:30.960Z,57.50
2022-08-29T16:20:00.123Z,57.50
2022-08-29T16:22:28.469Z,57.50
2022-08-29T16:24:55.892Z,57.40
2022-08-29T16:27:24.220Z,57.40
2022-08-29T16:29:53.132Z,57.20
2022-08-29T16:32:20.817Z,57.10
2022-08-29T16:34:47.785Z,57.10
2022-08-29T16:37:15.054Z,57.00
2022-08-29T16:39:42.048Z,57.00
2022-08-29T16:42:12.053Z,57.00
2022-08-29T16:44:40.006Z,57.10
2022-08-29T16:47:07.046Z,56.90
2022-08-29T16:49:33.916Z,57.00
2022-08-29T16:52:00.716Z,57.30
2022-08-29T16:54:27.592Z,57.30
2022-08-29T16:56:55.186Z,57.40
2022-08-29T16:59:22.730Z,57.60
2022-08-29T17:01:53.403Z,57.60
2022-08-29T17:04:26.026Z,57.70
2022-08-29T17:06:53.338Z,57.80
2022-08-29T17:09:23.624Z,58.00
2022-08-29T17:11:52.884Z,58.00
2022-08-29T17:14:21.393Z,58.20
2022-08-29T17:16:52.470Z,58.30
2022-08-29T17:19:20.942Z,58.90
2022-08-29T17:21:48.284Z,58.30
2022-08-29T17:24:16.154Z,58.30
2022-08-29T17:26:46.879Z,58.50
2022-08-29T17:29:15.231Z,58.40
2022-08-29T17:31:42.786Z,58.40
2022-08-29T17:34:10.282Z,58.50
2022-08-29T17:36:40.503Z,58.40
2022-08-29T17:39:08.857Z,58.50
2022-08-29T17:41:37.394Z,58.50
2022-08-29T17:44:07.574Z,58.60
2022-08-29T17:46:35.158Z,58.70
2022-08-29T17:49:07.423Z,58.80
2022-08-29T17:51:35.562Z,58.80
2022-08-29T17:54:04.601Z,59.00
2022-08-29T17:56:48.095Z,59.10
2022-08-29T17:59:17.853Z,59.10
2022-08-29T18:01:45.638Z,59.20
2022-08-29T18:04:13.284Z,59.40
2022-08-29T18:06:40.432Z,59.50
2022-08-29T18:09:09.118Z,59.60
2022-08-29T18:11:45.576Z,59.70
2022-08-29T18:14:13.110Z,59.80
2022-08-29T18:16:40.160Z,59.90
2022-08-29T18:19:08.127Z,60.00
2022-08-29T18:21:35.972Z,60.20
2022-08-29T18:24:04.108Z,60.30
2022-08-29T18:26:33.606Z,60.50
2022-08-29T18:29:00.500Z,60.70
2022-08-29T18:31:27.438Z,60.90
2022-08-29T18:34:00.699Z,61.00
2022-08-29T18:36:34.077Z,61.20
2022-08-29T18:39:04.460Z,61.60
2022-08-29T18:41:31.564Z,61.70
2022-08-29T18:43:58.919Z,61.70
2022-08-29T18:46:27.363Z,61.90
2022-08-29T18:48:54.355Z,62.00
2022-08-29T18:51:21.257Z,62.20
2022-08-29T18:53:48.116Z,62.50
2022-08-29T18:56:15.798Z,62.60
2022-08-29T18:58:44.684Z,62.70
2022-08-29T19:01:27.345Z,62.80
2022-08-29T19:03:56.609Z,63.00
2022-08-29T19:06:25.842Z,63.20
2022-08-29T19:08:54.539Z,63.20
2022-08-29T19:11:21.318Z,63.40
2022-08-29T19:13:52.624Z,63.40
2022-08-29T19:16:22.095Z,63.70
2022-08-29T19:18:50.036Z,63.90
2022-08-29T19:21:16.887Z,63.90
2022-08-29T19:23:52.531Z,64.00
2022-08-29T19:26:34.979Z,64.30
2022-08-29T19:29:12.400Z,64.60
2022-08-29T19:31:40.895Z,64.80
2022-08-29T19:34:08.087Z,64.80
2022-08-29T19:36:34.961Z,65.00
2022-08-29T19:39:01.950Z,65.00
2022-08-29T19:41:28.685Z,65.00
2022-08-29T19:43:55.540Z,65.10
2022-08-29T19:46:24.054Z,65.00
2022-08-29T19:48:52.560Z,65.10
2022-08-29T19:51:25.075Z,65.10
2022-08-29T19:53:53.928Z,65.20
2022-08-29T19:56:20.923Z,65.20
2022-08-29T19:58:49.516Z,65.20
2022-08-29T20:01:17.263Z,65.20
2022-08-29T20:03:44.527Z,65.30
2022-08-29T20:06:12.249Z,65.40
2022-08-29T20:08:43.651Z,65.40
2022-08-29T20:11:14.153Z,65.60
2022-08-29T20:13:47.571Z,65.70
2022-08-29T20:16:21.855Z,65.80
2022-08-29T20:18:48.867Z,65.90
2022-08-29T20:21:17.272Z,65.90
2022-08-29T20:23:49.963Z,66.10
2022-08-29T20:26:20.965Z,66.30
2022-08-29T20:28:51.654Z,66.30
2022-08-29T20:31:19.405Z,66.50
2022-08-29T20:33:48.258Z,66.60
2022-08-29T20:36:38.581Z,66.70
2022-08-29T20:39:07.718Z,66.90
2022-08-29T20:41:34.947Z,67.10
2022-08-29T20:44:06.983Z,67.20
2022-08-29T20:46:40.403Z,67.30
2022-08-29T20:49:12.502Z,67.70
2022-08-29T20:51:44.358Z,67.70
2022-08-29T20:54:17.778Z,67.80
2022-08-29T20:56:44.854Z,68.20
2022-08-29T20:59:12.339Z,68.10
2022-08-29T21:01:40.358Z,68.30
2022-08-29T21:04:27.804Z,68.40
2022-08-29T21:07:08.717Z,68.70
2022-08-29T21:09:40.272Z,69.20
2022-08-29T21:12:07.942Z,69.10
2022-08-29T21:14:34.763Z,69.30
2022-08-29T21:17:02.750Z,69.50
2022-08-29T21:19:30.025Z,69.60
2022-08-29T21:22:02.643Z,69.90
2022-08-29T21:24:30.406Z,70.50
2022-08-29T21:26:57.642Z,70.40
2022-08-29T21:29:24.458Z,70.50
2022-08-29T21:31:53.962Z,70.60
2022-08-29T21:34:22.258Z,70.90
2022-08-29T21:36:50.563Z,71.10
2022-08-29T21:39:19.673Z,71.20
2022-08-29T21:41:56.497Z,71.60
2022-08-29T21:44:23.843Z,71.70
2022-08-29T21:46:50.702Z,71.80
2022-08-29T21:49:21.740Z,71.90
2022-08-29T21:51:49.561Z,72.20
2022-08-29T21:54:17.989Z,72.30
2022-08-29T21:56:46.220Z,72.50
2022-08-29T21:59:14.970Z,72.60
2022-08-29T22:01:43.798Z,72.80
2022-08-29T22:04:18.687Z,72.90
2022-08-29T22:06:55.640Z,73.20
2022-08-29T22:09:23.214Z,73.10
2022-08-29T22:11:50.283Z,73.20
2022-08-29T22:14:17.084Z,73.50
2022-08-29T22:16:43.964Z,73.60
2022-08-29T22:19:16.811Z,73.90
2022-08-29T22:21:51.990Z,74.70
2022-08-29T22:24:19.354Z,74.70
2022-08-29T22:26:46.937Z,74.50
2022-08-29T22:29:18.309Z,74.70
2022-08-29T22:31:45.778Z,74.80
2022-08-29T22:34:16.776Z,74.90
2022-08-29T22:36:44.254Z,75.20
2022-08-29T22:39:11.505Z,75.30
2022-08-29T22:41:38.376Z,75.30
2022-08-29T22:46:53.963Z,75.80
2022-08-29T22:49:21.294Z,75.90
2022-08-29T22:51:49.006Z,75.90
2022-08-29T22:54:48.130Z,76.30
2022-08-29T22:57:19.174Z,76.30
2022-08-29T22:59:49.241Z,76.70
2022-08-29T23:02:20.121Z,77.50
2022-08-29T23:04:50.080Z,76.90
2022-08-29T23:07:17.730Z,77.20
2022-08-29T23:09:44.944Z,77.20
2022-08-29T23:12:14.637Z,77.40
2022-08-29T23:14:46.669Z,77.90
2022-08-29T23:17:15.144Z,77.80
2022-08-29T23:19:43.164Z,77.80
2022-08-29T23:22:12.440Z,77.80
2022-08-29T23:24:41.345Z,78.00
2022-08-29T23:27:20.774Z,78.30
2022-08-29T23:29:51.532Z,78.20
2022-08-29T23:32:18.772Z,78.70
2022-08-29T23:34:45.627Z,78.50
2022-08-29T23:37:12.428Z,78.50
2022-08-29T23:39:39.209Z,78.60
2022-08-29T23:42:06.592Z,78.70
2022-08-29T23:44:33.749Z,78.70
2022-08-29T23:47:00.514Z,78.70
2022-08-29T23:49:28.550Z,78.70
2022-08-29T23:51:55.402Z,78.90
2022-08-29T23:54:22.179Z,78.80
2022-08-29T23:56:49.124Z,78.80
2022-08-29T23:59:35.880Z,78.90
